createdAt,value
2018-06-09T00:01:15.722Z,21.24
2018-06-09T00:03:44.451Z,21.09
2018-06-09T00:06:13.507Z,21.11
2018-06-09T00:08:42.235Z,20.77
2018-06-09T00:11:11.375Z,20.85
2018-06-09T00:13:40.495Z,20.87
2018-06-09T00:16:09.227Z,21.05
2018-06-09T00:18:37.992Z,20.75
2018-06-09T00:21:07.094Z,21.00
2018-06-09T00:23:36.162Z,21.02
2018-06-09T00:26:04.902Z,20.95
2018-06-09T00:28:33.943Z,21.01
2018-06-09T00:31:02.680Z,20.91
2018-06-09T00:33:31.265Z,20.97
2018-06-09T00:36:00.372Z,20.94
2018-06-09T00:38:29.105Z,21.12
2018-06-09T00:40:57.822Z,21.09
2018-06-09T00:43:26.888Z,21.10
2018-06-09T00:45:55.662Z,21.15
2018-06-09T00:48:24.466Z,21.06
2018-06-09T00:50:53.832Z,20.96
2018-06-09T00:53:22.556Z,20.80
2018-06-09T00:56:01.895Z,20.82
2018-06-09T00:58:30.924Z,20.87
2018-06-09T01:00:59.748Z,20.94
2018-06-09T01:03:28.768Z,20.77
2018-06-09T01:05:57.531Z,20.81
2018-06-09T01:08:26.313Z,20.79
2018-06-09T01:10:55.452Z,20.55
2018-06-09T01:13:27.682Z,20.42
2018-06-09T01:15:57.060Z,20.63
2018-06-09T01:18:25.784Z,20.68
2018-06-09T01:20:54.552Z,20.63
2018-06-09T01:23:23.699Z,20.65
2018-06-09T01:25:52.435Z,20.65
2018-06-09T01:28:21.009Z,20.61
2018-06-09T01:30:50.036Z,20.64
2018-06-09T01:33:18.765Z,20.66
2018-06-09T01:35:47.551Z,20.62
2018-06-09T01:38:16.643Z,20.64
2018-06-09T01:40:45.714Z,20.42
2018-06-09T01:43:14.452Z,20.61
2018-06-09T01:45:43.523Z,20.63
2018-06-09T01:48:12.146Z,20.46
2018-06-09T01:50:40.722Z,20.56
2018-06-09T01:53:09.797Z,20.47
2018-06-09T01:55:38.564Z,20.18
2018-06-09T01:58:07.291Z,20.56
2018-06-09T02:00:36.470Z,20.56
2018-06-09T02:03:05.302Z,20.65
2018-06-09T02:05:34.196Z,20.47
2018-06-09T02:08:03.142Z,20.44
2018-06-09T02:10:31.884Z,20.54
2018-06-09T02:13:00.681Z,20.34
2018-06-09T02:15:29.824Z,20.37
2018-06-09T02:17:58.580Z,20.45
2018-06-09T02:20:27.319Z,20.33
2018-06-09T02:22:56.500Z,20.29
2018-06-09T02:25:25.135Z,20.31
2018-06-09T02:27:53.705Z,20.24
2018-06-09T02:30:22.656Z,20.24
2018-06-09T02:32:51.399Z,20.22
2018-06-09T02:35:19.971Z,20.17
2018-06-09T02:37:49.439Z,20.28
2018-06-09T02:40:18.171Z,20.32
2018-06-09T02:42:47.086Z,20.16
2018-06-09T02:45:22.359Z,20.09
2018-06-09T02:47:51.006Z,20.20
2018-06-09T02:50:19.744Z,20.17
2018-06-09T02:52:48.831Z,20.09
2018-06-09T02:55:17.576Z,20.17
2018-06-09T02:57:46.316Z,20.07
2018-06-09T03:00:15.390Z,20.04
2018-06-09T03:02:44.387Z,19.94
2018-06-09T03:05:13.194Z,20.25
2018-06-09T03:07:42.300Z,20.19
2018-06-09T03:10:11.042Z,20.10
2018-06-09T03:12:39.833Z,20.20
2018-06-09T03:15:08.768Z,20.12
2018-06-09T03:17:37.534Z,20.15
2018-06-09T03:20:06.288Z,20.23
2018-06-09T03:22:35.309Z,20.30
2018-06-09T03:25:04.179Z,20.28
2018-06-09T03:27:33.355Z,20.24
2018-06-09T03:30:02.129Z,20.38
2018-06-09T03:32:30.865Z,20.42
2018-06-09T03:34:59.995Z,20.43
2018-06-09T03:37:28.820Z,20.39
2018-06-09T03:39:57.599Z,20.39
2018-06-09T03:42:26.680Z,20.51
2018-06-09T03:44:55.749Z,20.43
2018-06-09T03:47:24.490Z,20.39
2018-06-09T03:49:53.654Z,20.45
2018-06-09T03:52:22.544Z,20.46
2018-06-09T03:54:51.287Z,20.29
2018-06-09T03:57:20.599Z,20.42
2018-06-09T03:59:49.337Z,20.46
2018-06-09T04:02:18.114Z,20.38
2018-06-09T04:04:47.214Z,20.23
2018-06-09T04:07:15.940Z,20.30
2018-06-09T04:09:44.521Z,20.40
2018-06-09T04:12:14.408Z,20.46
2018-06-09T04:14:43.023Z,20.44
2018-06-09T04:17:11.598Z,20.53
2018-06-09T04:19:40.972Z,20.60
2018-06-09T04:22:10.007Z,20.63
2018-06-09T04:24:38.755Z,20.57
2018-06-09T04:27:07.853Z,20.73
2018-06-09T04:29:36.827Z,20.87
2018-06-09T04:32:05.671Z,21.14
2018-06-09T04:34:34.639Z,21.53
2018-06-09T04:37:03.368Z,21.46
2018-06-09T04:39:32.159Z,21.65
2018-06-09T04:42:01.111Z,21.64
2018-06-09T04:44:29.849Z,21.88
2018-06-09T04:46:59.300Z,21.75
2018-06-09T04:49:28.027Z,21.50
2018-06-09T04:51:56.838Z,21.69
2018-06-09T04:54:25.943Z,21.88
2018-06-09T04:56:54.686Z,21.92
2018-06-09T04:59:23.448Z,22.48
2018-06-09T05:01:52.444Z,23.21
2018-06-09T05:04:21.503Z,23.42
2018-06-09T05:06:50.540Z,23.14
2018-06-09T05:09:19.635Z,23.04
2018-06-09T05:11:48.619Z,22.92
2018-06-09T05:14:17.368Z,22.57
2018-06-09T05:16:46.515Z,22.79
2018-06-09T05:19:15.244Z,23.17
2018-06-09T05:21:44.038Z,22.97
2018-06-09T05:24:13.230Z,22.97
2018-06-09T05:26:41.963Z,22.58
2018-06-09T05:29:10.779Z,22.81
2018-06-09T05:31:39.872Z,22.80
2018-06-09T05:34:08.627Z,22.72
2018-06-09T05:36:37.382Z,22.61
2018-06-09T05:39:08.422Z,23.02
2018-06-09T05:41:37.328Z,22.77
2018-06-09T05:44:05.912Z,22.88
2018-06-09T05:46:34.858Z,23.24
2018-06-09T05:49:03.615Z,23.08
2018-06-09T05:51:32.371Z,23.13
2018-06-09T05:54:01.371Z,23.28
2018-06-09T05:56:30.198Z,23.23
2018-06-09T05:58:58.928Z,23.24
2018-06-09T06:01:28.239Z,23.66
2018-06-09T06:03:57.275Z,23.92
2018-06-09T06:06:26.092Z,24.12
2018-06-09T06:08:55.196Z,24.24
2018-06-09T06:11:23.954Z,24.58
2018-06-09T06:13:52.700Z,25.26
2018-06-09T06:16:22.075Z,24.63
2018-06-09T06:18:50.757Z,24.93
2018-06-09T06:21:19.478Z,25.59
2018-06-09T06:23:48.556Z,25.65
2018-06-09T06:26:17.426Z,24.45
2018-06-09T06:28:46.183Z,24.77
2018-06-09T06:31:15.423Z,24.53
2018-06-09T06:33:44.188Z,24.17
2018-06-09T06:36:12.943Z,24.23
2018-06-09T06:38:41.817Z,24.48
2018-06-09T06:41:10.559Z,24.44
2018-06-09T06:43:39.458Z,24.60
2018-06-09T06:46:08.902Z,24.66
2018-06-09T06:48:37.779Z,24.75
2018-06-09T06:51:06.566Z,24.35
2018-06-09T06:53:35.766Z,25.47
2018-06-09T06:56:04.770Z,25.25
2018-06-09T06:58:33.794Z,25.79
2018-06-09T07:01:02.711Z,26.40
2018-06-09T07:03:31.877Z,25.91
2018-06-09T07:06:01.388Z,25.24
2018-06-09T07:08:31.204Z,25.43
2018-06-09T07:11:00.924Z,24.80
2018-06-09T07:13:34.995Z,24.94
2018-06-09T07:16:06.866Z,25.32
2018-06-09T07:18:36.597Z,24.52
2018-06-09T07:21:06.082Z,24.30
2018-06-09T07:23:35.411Z,24.03
2018-06-09T07:26:04.930Z,23.82
2018-06-09T07:28:33.704Z,24.18
2018-06-09T07:31:02.528Z,24.13
2018-06-09T07:33:31.656Z,24.02
2018-06-09T07:36:00.414Z,24.26
2018-06-09T07:38:29.180Z,24.52
2018-06-09T07:40:58.344Z,24.26
2018-06-09T07:43:27.422Z,24.61
2018-06-09T07:45:56.165Z,24.35
2018-06-09T07:48:25.479Z,24.61
2018-06-09T07:50:54.210Z,24.50
2018-06-09T07:53:22.942Z,24.57
2018-06-09T07:55:52.099Z,24.80
2018-06-09T07:58:20.858Z,24.78
2018-06-09T08:00:50.055Z,24.64
2018-06-09T08:03:18.932Z,24.58
2018-06-09T08:05:48.072Z,24.80
2018-06-09T08:08:17.082Z,25.04
2018-06-09T08:10:46.115Z,24.66
2018-06-09T08:13:14.742Z,24.94
2018-06-09T08:15:44.484Z,25.18
2018-06-09T08:18:13.099Z,25.17
2018-06-09T08:20:41.936Z,24.91
2018-06-09T08:23:11.280Z,25.43
2018-06-09T08:25:39.906Z,25.65
2018-06-09T08:28:08.798Z,25.64
2018-06-09T08:30:38.020Z,25.31
2018-06-09T08:33:06.844Z,25.67
2018-06-09T08:35:35.672Z,25.59
2018-06-09T08:38:04.795Z,25.74
2018-06-09T08:40:33.564Z,25.52
2018-06-09T08:43:02.242Z,25.41
2018-06-09T08:45:34.478Z,25.61
2018-06-09T08:48:03.227Z,25.79
2018-06-09T08:50:32.434Z,25.64
2018-06-09T08:53:01.491Z,26.00
2018-06-09T08:55:30.289Z,25.93
2018-06-09T08:57:59.200Z,27.04
2018-06-09T09:00:28.287Z,27.23
2018-06-09T09:02:57.043Z,26.72
2018-06-09T09:05:25.832Z,27.52
2018-06-09T09:07:54.991Z,28.03
2018-06-09T09:10:23.828Z,28.41
2018-06-09T09:12:52.608Z,26.73
2018-06-09T09:15:21.760Z,26.36
2018-06-09T09:17:50.540Z,27.06
2018-06-09T09:20:19.178Z,26.92
2018-06-09T09:22:48.316Z,26.82
2018-06-09T09:25:17.073Z,27.27
2018-06-09T09:27:45.831Z,28.12
2018-06-09T09:30:15.171Z,27.50
2018-06-09T09:32:43.968Z,27.88
2018-06-09T09:35:13.064Z,27.74
2018-06-09T09:37:42.544Z,27.55
2018-06-09T09:40:11.323Z,27.70
2018-06-09T09:42:40.428Z,27.83
2018-06-09T09:45:15.839Z,28.92
2018-06-09T09:47:44.656Z,28.62
2018-06-09T09:50:13.441Z,28.49
2018-06-09T09:52:42.522Z,28.71
2018-06-09T09:55:11.306Z,28.78
2018-06-09T09:57:57.608Z,29.45
2018-06-09T10:00:32.059Z,28.93
2018-06-09T10:03:01.103Z,29.33
2018-06-09T10:05:29.895Z,28.78
2018-06-09T10:07:58.885Z,28.80
2018-06-09T10:10:28.068Z,29.38
2018-06-09T10:12:56.855Z,29.50
2018-06-09T10:15:25.650Z,28.80
2018-06-09T10:17:54.884Z,28.77
2018-06-09T10:20:23.642Z,29.03
2018-06-09T10:22:52.428Z,29.41
2018-06-09T10:25:21.563Z,29.01
2018-06-09T10:27:50.336Z,29.53
2018-06-09T10:30:19.161Z,28.43
2018-06-09T10:32:48.252Z,28.27
2018-06-09T10:35:17.071Z,28.51
2018-06-09T10:37:45.712Z,28.67
2018-06-09T10:40:14.808Z,28.53
2018-06-09T10:42:43.563Z,29.11
2018-06-09T10:45:18.377Z,29.72
2018-06-09T10:47:47.184Z,28.99
2018-06-09T10:50:15.928Z,29.23
2018-06-09T10:52:44.980Z,28.91
2018-06-09T10:55:13.714Z,29.64
2018-06-09T10:57:42.848Z,29.01
2018-06-09T11:00:11.976Z,29.97
2018-06-09T11:02:40.715Z,30.10
2018-06-09T11:05:09.292Z,29.29
2018-06-09T11:07:38.559Z,29.81
2018-06-09T11:10:07.384Z,29.64
2018-06-09T11:12:36.163Z,29.35
2018-06-09T11:15:05.345Z,29.92
2018-06-09T11:17:34.096Z,30.50
2018-06-09T11:20:02.905Z,30.04
2018-06-09T11:22:31.978Z,29.93
2018-06-09T11:25:00.866Z,30.08
2018-06-09T11:27:29.624Z,30.57
2018-06-09T11:29:58.695Z,30.26
2018-06-09T11:32:27.439Z,30.00
2018-06-09T11:34:56.190Z,29.64
2018-06-09T11:37:25.302Z,29.99
2018-06-09T11:39:54.418Z,30.13
2018-06-09T11:42:23.170Z,29.95
2018-06-09T11:44:52.251Z,30.31
2018-06-09T11:47:20.980Z,30.40
2018-06-09T11:49:49.776Z,30.24
2018-06-09T11:52:19.179Z,30.00
2018-06-09T11:54:47.762Z,30.08
2018-06-09T11:57:16.341Z,29.93
2018-06-09T11:59:45.498Z,29.61
2018-06-09T12:02:14.282Z,29.57
2018-06-09T12:04:43.020Z,29.97
2018-06-09T12:07:11.867Z,29.77
2018-06-09T12:09:40.604Z,30.24
2018-06-09T12:12:09.168Z,30.50
2018-06-09T12:14:38.542Z,30.00
2018-06-09T12:17:07.303Z,30.23
2018-06-09T12:19:36.119Z,29.82
2018-06-09T12:22:05.327Z,29.88
2018-06-09T12:24:34.136Z,29.77
2018-06-09T12:27:02.952Z,29.84
2018-06-09T12:29:31.853Z,29.87
2018-06-09T12:32:00.579Z,30.13
2018-06-09T12:34:29.315Z,30.56
2018-06-09T12:36:58.265Z,30.87
2018-06-09T12:39:27.093Z,31.11
2018-06-09T12:41:55.908Z,30.88
2018-06-09T12:44:25.052Z,31.31
2018-06-09T12:46:53.818Z,31.06
2018-06-09T12:49:22.563Z,31.51
2018-06-09T12:51:51.647Z,31.40
2018-06-09T12:54:20.407Z,30.95
2018-06-09T12:56:49.402Z,31.22
2018-06-09T12:59:18.496Z,31.73
2018-06-09T13:01:47.554Z,31.11
2018-06-09T13:04:16.354Z,30.99
2018-06-09T13:06:45.477Z,31.09
2018-06-09T13:09:14.230Z,30.64
2018-06-09T13:11:42.968Z,31.55
2018-06-09T13:14:11.956Z,31.08
2018-06-09T13:16:40.753Z,31.17
2018-06-09T13:19:09.504Z,31.07
2018-06-09T13:21:38.629Z,30.82
2018-06-09T13:24:07.684Z,31.61
2018-06-09T13:26:36.437Z,32.28
2018-06-09T13:29:05.575Z,31.67
2018-06-09T13:31:34.668Z,32.27
2018-06-09T13:34:03.456Z,31.65
2018-06-09T13:36:32.492Z,31.12
2018-06-09T13:39:01.223Z,31.37
2018-06-09T13:41:30.037Z,31.37
2018-06-09T13:43:59.164Z,30.94
2018-06-09T13:46:27.919Z,31.47
2018-06-09T13:48:56.668Z,31.18
2018-06-09T13:51:25.740Z,31.61
2018-06-09T13:53:54.366Z,31.08
2018-06-09T13:56:22.946Z,31.25
2018-06-09T13:58:52.012Z,31.37
2018-06-09T14:01:21.152Z,31.51
2018-06-09T14:03:49.922Z,31.38
2018-06-09T14:06:19.363Z,31.25
2018-06-09T14:08:48.112Z,31.29
2018-06-09T14:11:16.866Z,31.27
2018-06-09T14:13:46.284Z,31.09
2018-06-09T14:16:15.106Z,31.59
2018-06-09T14:18:43.922Z,31.53
2018-06-09T14:21:12.999Z,31.79
2018-06-09T14:23:41.752Z,31.47
2018-06-09T14:26:10.498Z,31.01
2018-06-09T14:28:39.632Z,31.84
2018-06-09T14:31:08.454Z,31.70
2018-06-09T14:33:37.275Z,31.81
2018-06-09T14:36:06.412Z,31.43
2018-06-09T14:38:35.042Z,30.99
2018-06-09T14:41:03.630Z,30.98
2018-06-09T14:43:32.786Z,31.39
2018-06-09T14:46:01.535Z,31.21
2018-06-09T14:48:30.259Z,31.14
2018-06-09T14:50:59.463Z,30.36
2018-06-09T14:53:28.196Z,30.75
2018-06-09T14:55:56.993Z,30.85
2018-06-09T14:58:26.131Z,31.09
2018-06-09T15:00:54.880Z,30.98
2018-06-09T15:03:28.424Z,31.12
2018-06-09T15:05:57.210Z,31.04
2018-06-09T15:08:26.335Z,30.90
2018-06-09T15:10:55.403Z,31.21
2018-06-09T15:13:24.152Z,31.63
2018-06-09T15:15:52.908Z,31.48
2018-06-09T15:18:22.293Z,30.96
2018-06-09T15:20:51.037Z,31.66
2018-06-09T15:23:19.768Z,31.45
2018-06-09T15:25:48.841Z,31.06
2018-06-09T15:28:17.582Z,31.09
2018-06-09T15:30:46.397Z,30.56
2018-06-09T15:33:15.363Z,31.14
2018-06-09T15:35:44.174Z,30.70
2018-06-09T15:38:12.755Z,31.15
2018-06-09T15:40:41.913Z,31.00
2018-06-09T15:43:10.732Z,31.07
2018-06-09T15:45:45.839Z,31.19
2018-06-09T15:48:14.603Z,31.13
2018-06-09T15:50:43.339Z,31.03
2018-06-09T15:53:12.435Z,30.86
2018-06-09T15:55:41.172Z,31.23
2018-06-09T15:58:09.908Z,31.14
2018-06-09T16:00:38.984Z,30.91
2018-06-09T16:03:08.079Z,30.70
2018-06-09T16:05:36.706Z,30.27
2018-06-09T16:08:05.657Z,31.00
2018-06-09T16:10:34.603Z,30.87
2018-06-09T16:13:03.196Z,31.01
2018-06-09T16:15:32.531Z,30.83
2018-06-09T16:18:01.153Z,30.75
2018-06-09T16:20:29.880Z,30.90
2018-06-09T16:22:59.011Z,30.94
2018-06-09T16:25:27.760Z,30.58
2018-06-09T16:27:56.513Z,30.37
2018-06-09T16:30:25.999Z,30.08
2018-06-09T16:32:54.613Z,30.07
2018-06-09T16:35:23.371Z,30.20
2018-06-09T16:37:52.472Z,30.37
2018-06-09T16:40:21.211Z,30.33
2018-06-09T16:42:50.016Z,30.14
2018-06-09T16:45:19.062Z,30.45
2018-06-09T16:47:48.060Z,30.06
2018-06-09T16:50:16.844Z,29.89
2018-06-09T16:52:45.947Z,29.98
2018-06-09T16:55:14.824Z,30.08
2018-06-09T16:57:43.941Z,29.87
2018-06-09T17:00:12.992Z,29.77
2018-06-09T17:02:41.751Z,29.63
2018-06-09T17:05:10.757Z,29.63
2018-06-09T17:07:39.854Z,29.45
2018-06-09T17:10:08.623Z,29.10
2018-06-09T17:12:37.220Z,29.10
2018-06-09T17:15:06.364Z,29.27
2018-06-09T17:17:35.153Z,29.15
2018-06-09T17:20:04.060Z,28.98
2018-06-09T17:22:33.137Z,29.00
2018-06-09T17:25:01.960Z,28.76
2018-06-09T17:27:31.075Z,28.63
2018-06-09T17:30:00.048Z,28.61
2018-06-09T17:32:29.182Z,28.64
2018-06-09T17:34:57.936Z,28.46
2018-06-09T17:37:27.004Z,28.48
2018-06-09T17:39:55.772Z,28.35
2018-06-09T17:42:24.528Z,28.37
2018-06-09T17:44:53.780Z,28.25
2018-06-09T17:47:22.571Z,28.40
2018-06-09T17:49:51.342Z,28.18
2018-06-09T17:52:20.463Z,28.17
2018-06-09T17:54:49.207Z,28.27
2018-06-09T17:57:18.438Z,28.07
2018-06-09T17:59:48.832Z,28.17
2018-06-09T18:02:18.035Z,28.04
2018-06-09T18:04:46.823Z,27.94
2018-06-09T18:07:15.888Z,28.05
2018-06-09T18:09:44.707Z,27.99
2018-06-09T18:12:13.659Z,28.16
2018-06-09T18:14:42.717Z,28.04
2018-06-09T18:17:11.475Z,27.97
2018-06-09T18:19:40.121Z,27.95
2018-06-09T18:22:09.256Z,27.79
2018-06-09T18:24:37.842Z,27.96
2018-06-09T18:27:06.623Z,27.74
2018-06-09T18:29:35.582Z,27.97
2018-06-09T18:32:04.373Z,27.87
2018-06-09T18:34:33.219Z,27.63
2018-06-09T18:37:02.366Z,27.39
2018-06-09T18:39:31.136Z,27.46
2018-06-09T18:41:59.921Z,27.44
2018-06-09T18:44:28.991Z,27.34
2018-06-09T18:46:57.806Z,27.26
2018-06-09T18:49:26.596Z,27.43
2018-06-09T18:51:55.820Z,27.14
2018-06-09T18:54:24.903Z,27.30
2018-06-09T18:56:53.798Z,26.95
2018-06-09T18:59:22.938Z,26.87
2018-06-09T19:01:51.526Z,26.93
2018-06-09T19:04:20.354Z,26.67
2018-06-09T19:06:49.440Z,26.76
2018-06-09T19:09:18.211Z,26.76
2018-06-09T19:11:47.080Z,26.67
2018-06-09T19:14:16.254Z,26.56
2018-06-09T19:16:45.034Z,26.58
2018-06-09T19:19:13.820Z,26.35
2018-06-09T19:21:42.927Z,26.24
2018-06-09T19:24:12.191Z,26.17
2018-06-09T19:26:40.970Z,26.13
2018-06-09T19:29:10.111Z,26.15
2018-06-09T19:31:38.938Z,26.04
2018-06-09T19:34:07.852Z,26.02
2018-06-09T19:36:36.987Z,25.89
2018-06-09T19:39:08.605Z,25.89
2018-06-09T19:41:38.002Z,25.88
2018-06-09T19:44:06.774Z,25.80
2018-06-09T19:46:35.579Z,25.89
2018-06-09T19:49:04.702Z,25.82
2018-06-09T19:51:33.447Z,25.86
2018-06-09T19:54:02.244Z,25.78
2018-06-09T19:56:31.400Z,25.84
2018-06-09T19:59:00.213Z,25.87
2018-06-09T20:01:28.997Z,25.78
2018-06-09T20:03:58.080Z,25.73
2018-06-09T20:06:26.817Z,25.68
2018-06-09T20:08:55.399Z,25.62
2018-06-09T20:11:24.457Z,25.59
2018-06-09T20:13:53.073Z,25.43
2018-06-09T20:16:21.808Z,25.30
2018-06-09T20:18:50.928Z,25.23
2018-06-09T20:21:20.060Z,25.20
2018-06-09T20:23:48.663Z,25.26
2018-06-09T20:26:18.010Z,24.92
2018-06-09T20:28:47.070Z,24.96
2018-06-09T20:31:15.894Z,25.12
2018-06-09T20:33:44.995Z,25.09
2018-06-09T20:36:13.800Z,25.08
2018-06-09T20:38:42.731Z,25.14
2018-06-09T20:41:11.977Z,25.04
2018-06-09T20:43:40.744Z,24.85
2018-06-09T20:46:09.475Z,24.66
2018-06-09T20:48:38.650Z,24.84
2018-06-09T20:51:07.296Z,24.88
2018-06-09T20:53:36.105Z,24.94
2018-06-09T20:56:05.179Z,24.78
2018-06-09T20:58:39.464Z,24.64
2018-06-09T21:01:08.843Z,24.65
2018-06-09T21:03:37.608Z,24.78
2018-06-09T21:06:06.644Z,24.44
2018-06-09T21:08:35.675Z,24.55
2018-06-09T21:11:04.287Z,24.42
2018-06-09T21:13:34.014Z,24.51
2018-06-09T21:16:03.123Z,24.36
2018-06-09T21:18:31.891Z,24.34
2018-06-09T21:21:00.647Z,24.26
2018-06-09T21:23:29.590Z,24.24
2018-06-09T21:25:58.376Z,24.27
2018-06-09T21:28:28.020Z,24.09
2018-06-09T21:31:02.824Z,24.17
2018-06-09T21:33:54.241Z,24.12
2018-06-09T21:36:29.699Z,23.96
2018-06-09T21:38:59.370Z,23.92
2018-06-09T21:41:35.212Z,23.80
2018-06-09T21:44:09.593Z,23.78
2018-06-09T21:46:48.096Z,23.72
2018-06-09T21:49:17.610Z,23.59
2018-06-09T21:51:46.372Z,23.57
2018-06-09T21:54:15.419Z,23.57
2018-06-09T21:56:44.256Z,23.59
2018-06-09T21:59:13.333Z,23.47
2018-06-09T22:01:42.520Z,23.46
2018-06-09T22:04:11.265Z,23.48
2018-06-09T22:06:40.027Z,23.37
2018-06-09T22:09:09.243Z,23.37
2018-06-09T22:11:38.302Z,23.49
2018-06-09T22:14:07.470Z,23.66
2018-06-09T22:16:36.548Z,23.62
2018-06-09T22:19:05.365Z,23.50
2018-06-09T22:21:34.155Z,23.54
2018-06-09T22:24:03.318Z,23.33
2018-06-09T22:26:32.067Z,23.29
2018-06-09T22:29:00.790Z,23.11
2018-06-09T22:31:29.890Z,22.96
2018-06-09T22:33:58.509Z,22.89
2018-06-09T22:36:27.255Z,23.04
2018-06-09T22:38:56.361Z,23.08
2018-06-09T22:41:25.091Z,23.13
2018-06-09T22:43:53.664Z,22.97
2018-06-09T22:46:22.837Z,22.94
2018-06-09T22:48:51.583Z,22.68
2018-06-09T22:51:27.279Z,22.74
2018-06-09T22:53:55.882Z,22.60
2018-06-09T22:56:24.699Z,22.62
2018-06-09T22:58:53.641Z,22.41
2018-06-09T23:01:22.374Z,22.39
2018-06-09T23:03:51.384Z,22.59
2018-06-09T23:06:20.419Z,22.55
2018-06-09T23:08:49.050Z,22.56
2018-06-09T23:11:17.957Z,22.51
2018-06-09T23:13:47.122Z,22.38
2018-06-09T23:16:15.868Z,22.48
2018-06-09T23:18:44.592Z,22.31
2018-06-09T23:21:13.771Z,22.29
2018-06-09T23:23:42.521Z,22.18
2018-06-09T23:26:11.264Z,22.06
2018-06-09T23:28:40.610Z,22.12
2018-06-09T23:31:09.650Z,22.23
2018-06-09T23:33:38.598Z,22.18
2018-06-09T23:36:07.742Z,22.03
2018-06-09T23:38:36.475Z,22.04
2018-06-09T23:41:05.121Z,22.08
2018-06-09T23:43:34.161Z,22.11
2018-06-09T23:46:07.364Z,22.21
2018-06-09T23:48:36.494Z,22.13
2018-06-09T23:51:05.227Z,22.03
2018-06-09T23:53:33.796Z,22.05
2018-06-09T23:56:03.067Z,22.10
2018-06-09T23:58:31.709Z,22.35
